TimePDT,TemperatureF,Dew PointF,Humidity,Sea Level PressureIn,VisibilityMPH,Wind Direction,Wind SpeedMPH,Gust SpeedMPH,PrecipitationIn,Events,Conditions,WindDirDegrees,DateUTC
12:53 AM,60.1,42.1,51,29.96,10.0,East,13.8,-,N/A,,Clear,90,2013-03-31 07:53:00
1:53 AM,55.9,44.1,64,29.97,10.0,Calm,Calm,-,N/A,,Clear,0,2013-03-31 08:53:00
2:53 AM,55.9,43.0,62,29.96,10.0,Calm,Calm,-,N/A,,Clear,0,2013-03-31 09:53:00
3:53 AM,57.0,39.9,53,29.96,10.0,East,10.4,17.3,N/A,,Clear,90,2013-03-31 10:53:00
4:53 AM,57.0,39.0,51,29.96,10.0,East,16.1,-,N/A,,Clear,90,2013-03-31 11:53:00
5:53 AM,55.9,39.9,55,29.97,10.0,ESE,11.5,19.6,N/A,,Clear,120,2013-03-31 12:53:00
6:53 AM,52.0,39.9,63,29.99,10.0,Calm,Calm,-,N/A,,Clear,0,2013-03-31 13:53:00
7:53 AM,51.1,42.1,71,30.00,10.0,East,3.5,-,N/A,,Clear,100,2013-03-31 14:53:00
8:53 AM,55.9,42.1,60,30.00,10.0,East,9.2,-,N/A,,Clear,90,2013-03-31 15:53:00
9:53 AM,57.9,42.1,56,30.00,10.0,East,10.4,17.3,N/A,,Clear,80,2013-03-31 16:53:00
10:53 AM,61.0,42.1,50,29.99,10.0,Calm,Calm,-,N/A,,Clear,0,2013-03-31 17:53:00
11:53 AM,64.0,42.1,45,29.99,10.0,Calm,Calm,-,N/A,,Clear,0,2013-03-31 18:53:00
12:53 PM,68.0,44.1,42,29.96,10.0,NW,4.6,-,N/A,,Clear,320,2013-03-31 19:53:00
1:53 PM,71.1,45.0,39,29.93,10.0,WNW,3.5,-,N/A,,Clear,290,2013-03-31 20:53:00
2:53 PM,73.0,44.1,35,29.91,10.0,Variable,3.5,-,N/A,,Clear,0,2013-03-31 21:53:00
3:53 PM,75.9,44.1,32,29.89,10.0,Variable,3.5,-,N/A,,Clear,0,2013-03-31 22:53:00
4:53 PM,75.0,45.0,34,29.88,10.0,NW,4.6,-,N/A,,Clear,310,2013-03-31 23:53:00
5:53 PM,73.0,48.9,42,29.88,10.0,SW,10.4,-,N/A,,Clear,220,2013-04-01 00:53:00
6:53 PM,71.1,46.9,42,29.89,10.0,SSW,11.5,-,N/A,,Clear,210,2013-04-01 01:53:00
7:53 PM,68.0,48.9,50,29.90,10.0,SSW,4.6,-,N/A,,Clear,210,2013-04-01 02:53:00
8:53 PM,66.0,48.9,54,29.93,10.0,WSW,9.2,-,N/A,,Clear,240,2013-04-01 03:53:00
9:53 PM,63.0,48.0,58,29.97,10.0,SSW,8.1,-,N/A,,Overcast,210,2013-04-01 04:53:00
10:53 PM,61.0,48.9,64,29.99,10.0,SSW,8.1,-,N/A,,Partly Cloudy,200,2013-04-01 05:53:00
11:53 PM,59.0,48.9,69,30.00,10.0,SW,4.6,-,N/A,,Overcast,230,2013-04-01 06:53:00